sensor_id;sensor_type;location;lat;lon;timestamp;pressure;altitude;pressure_sealevel;temperature;humidity
8699;BME280;4386;51.236;6.742;2023-03-18T00:00:30;100418.53;;;13.81;71.72
8699;BME280;4386;51.236;6.742;2023-03-18T00:01:35;100423.84;;;13.81;71.66
8699;BME280;4386;51.236;6.742;2023-03-18T00:02:43;100432.84;;;13.80;71.54
8699;BME280;4386;51.236;6.742;2023-03-18T00:03:46;100425.84;;;13.79;71.98
8699;BME280;4386;51.236;6.742;2023-03-18T00:04:50;100424.16;;;13.78;71.78
8699;BME280;4386;51.236;6.742;2023-03-18T00:06:01;100433.16;;;13.77;71.95
8699;BME280;4386;51.236;6.742;2023-03-18T00:07:05;100436.78;;;13.76;71.84
8699;BME280;4386;51.236;6.742;2023-03-18T00:08:07;100444.78;;;13.76;71.58
8699;BME280;4386;51.236;6.742;2023-03-18T00:09:09;100448.28;;;13.77;72.15
8699;BME280;4386;51.236;6.742;2023-03-18T00:10:13;100444.78;;;13.76;72.27
8699;BME280;4386;51.236;6.742;2023-03-18T00:11:18;100434.97;;;13.77;72.03
8699;BME280;4386;51.236;6.742;2023-03-18T00:12:21;100435.81;;;13.77;72.18
8699;BME280;4386;51.236;6.742;2023-03-18T00:13:25;100430.50;;;13.77;72.23
8699;BME280;4386;51.236;6.742;2023-03-18T00:14:27;100436.63;;;13.78;72.07
8699;BME280;4386;51.236;6.742;2023-03-18T00:15:31;100436.78;;;13.76;72.31
8699;BME280;4386;51.236;6.742;2023-03-18T00:16:33;100438.59;;;13.76;72.29
8699;BME280;4386;51.236;6.742;2023-03-18T00:17:37;100440.44;;;13.75;72.30
8699;BME280;4386;51.236;6.742;2023-03-18T00:18:41;100442.41;;;13.73;72.29
8699;BME280;4386;51.236;6.742;2023-03-18T00:19:44;100450.41;;;13.73;72.37
8699;BME280;4386;51.236;6.742;2023-03-18T00:20:46;100455.72;;;13.73;72.37
8699;BME280;4386;51.236;6.742;2023-03-18T00:21:48;100451.09;;;13.75;72.57
8699;BME280;4386;51.236;6.742;2023-03-18T00:22:50;100457.41;;;13.74;72.46
8699;BME280;4386;51.236;6.742;2023-03-18T00:23:53;100441.44;;;13.74;72.47
8699;BME280;4386;51.236;6.742;2023-03-18T00:24:56;100449.25;;;13.76;72.49
8699;BME280;4386;51.236;6.742;2023-03-18T00:25:59;100445.75;;;13.75;72.38
8699;BME280;4386;51.236;6.742;2023-03-18T00:27:01;100445.75;;;13.75;72.52
8699;BME280;4386;51.236;6.742;2023-03-18T00:28:05;100442.41;;;13.73;72.64
8699;BME280;4386;51.236;6.742;2023-03-18T00:29:07;100446.06;;;13.72;72.34
8699;BME280;4386;51.236;6.742;2023-03-18T00:30:11;100448.88;;;13.71;72.35
8699;BME280;4386;51.236;6.742;2023-03-18T00:31:14;100441.03;;;13.69;72.40
8699;BME280;4386;51.236;6.742;2023-03-18T00:32:16;100441.03;;;13.69;72.88
8699;BME280;4386;51.236;6.742;2023-03-18T00:33:18;100431.50;;;13.67;72.59
8699;BME280;4386;51.236;6.742;2023-03-18T00:34:21;100436.97;;;13.65;72.76
8699;BME280;4386;51.236;6.742;2023-03-18T00:35:23;100437.97;;;13.64;72.87
8699;BME280;4386;51.236;6.742;2023-03-18T00:36:29;100437.25;;;13.62;72.70
8699;BME280;4386;51.236;6.742;2023-03-18T00:37:31;100443.59;;;13.61;72.97
8699;BME280;4386;51.236;6.742;2023-03-18T00:38:36;100443.59;;;13.61;73.00
8699;BME280;4386;51.236;6.742;2023-03-18T00:39:37;100443.59;;;13.61;72.95
8699;BME280;4386;51.236;6.742;2023-03-18T00:40:46;100437.56;;;13.59;73.17
8699;BME280;4386;51.236;6.742;2023-03-18T00:41:54;100436.88;;;13.57;72.73
8699;BME280;4386;51.236;6.742;2023-03-18T00:42:57;100428.88;;;13.57;73.10
8699;BME280;4386;51.236;6.742;2023-03-18T00:44:08;100429.84;;;13.56;73.24
8699;BME280;4386;51.236;6.742;2023-03-18T00:45:12;100420.19;;;13.55;73.19
8699;BME280;4386;51.236;6.742;2023-03-18T00:46:18;100423.84;;;13.54;73.21
8699;BME280;4386;51.236;6.742;2023-03-18T00:47:22;100425.81;;;13.52;73.24
8699;BME280;4386;51.236;6.742;2023-03-18T00:48:24;100424.28;;;13.49;73.31
8699;BME280;4386;51.236;6.742;2023-03-18T00:49:27;100421.78;;;13.48;73.35
8699;BME280;4386;51.236;6.742;2023-03-18T00:50:29;100425.41;;;13.47;73.62
8699;BME280;4386;51.236;6.742;2023-03-18T00:51:34;100421.22;;;13.44;73.62
8699;BME280;4386;51.236;6.742;2023-03-18T00:52:36;100436.50;;;13.42;73.63
8699;BME280;4386;51.236;6.742;2023-03-18T00:53:40;100435.81;;;13.40;73.85
8699;BME280;4386;51.236;6.742;2023-03-18T00:54:41;100436.50;;;13.42;73.92
8699;BME280;4386;51.236;6.742;2023-03-18T00:55:44;100432.28;;;13.40;73.93
8699;BME280;4386;51.236;6.742;2023-03-18T00:56:46;100424.31;;;13.40;73.78
8699;BME280;4386;51.236;6.742;2023-03-18T00:57:49;100420.97;;;13.38;73.81
8699;BME280;4386;51.236;6.742;2023-03-18T00:58:52;100425.44;;;13.37;73.88
8699;BME280;4386;51.236;6.742;2023-03-18T00:59:55;100429.94;;;13.37;73.85
8699;BME280;4386;51.236;6.742;2023-03-18T01:00:57;100423.75;;;13.36;74.22
8699;BME280;4386;51.236;6.742;2023-03-18T01:02:01;100435.25;;;13.37;74.02
8699;BME280;4386;51.236;6.742;2023-03-18T01:03:04;100427.41;;;13.35;74.15
8699;BME280;4386;51.236;6.742;2023-03-18T01:04:08;100436.22;;;13.36;74.20
8699;BME280;4386;51.236;6.742;2023-03-18T01:05:11;100439.72;;;13.36;74.31
8699;BME280;4386;51.236;6.742;2023-03-18T01:06:21;100444.22;;;13.36;74.24
8699;BME280;4386;51.236;6.742;2023-03-18T01:07:23;100437.06;;;13.36;74.30
8699;BME280;4386;51.236;6.742;2023-03-18T01:08:26;100441.41;;;13.37;74.24
8699;BME280;4386;51.236;6.742;2023-03-18T01:09:27;100440.56;;;13.37;74.12
8699;BME280;4386;51.236;6.742;2023-03-18T01:10:30;100450.25;;;13.38;74.28
8699;BME280;4386;51.236;6.742;2023-03-18T01:11:33;100445.59;;;13.40;74.47
8699;BME280;4386;51.236;6.742;2023-03-18T01:12:36;100448.94;;;13.42;74.47
8699;BME280;4386;51.236;6.742;2023-03-18T01:13:40;100456.81;;;13.43;74.34
8699;BME280;4386;51.236;6.742;2023-03-18T01:14:43;100448.66;;;13.45;74.20
8699;BME280;4386;51.236;6.742;2023-03-18T01:15:45;100446.72;;;13.47;74.39
8699;BME280;4386;51.236;6.742;2023-03-18T01:16:48;100445.56;;;13.49;74.09
8699;BME280;4386;51.236;6.742;2023-03-18T01:17:51;100440.25;;;13.49;74.20
8699;BME280;4386;51.236;6.742;2023-03-18T01:18:57;100442.78;;;13.51;73.99
8699;BME280;4386;51.236;6.742;2023-03-18T01:19:58;100437.47;;;13.51;74.02
8699;BME280;4386;51.236;6.742;2023-03-18T01:21:01;100435.78;;;13.50;74.32
8699;BME280;4386;51.236;6.742;2023-03-18T01:22:03;100444.72;;;13.49;74.10
8699;BME280;4386;51.236;6.742;2023-03-18T01:23:07;100439.41;;;13.49;74.22
8699;BME280;4386;51.236;6.742;2023-03-18T01:24:09;100441.38;;;13.47;74.41
8699;BME280;4386;51.236;6.742;2023-03-18T01:25:13;100443.06;;;13.48;74.57
8699;BME280;4386;51.236;6.742;2023-03-18T01:26:16;100442.22;;;13.47;74.43
8699;BME280;4386;51.236;6.742;2023-03-18T01:27:19;100443.88;;;13.48;74.64
8699;BME280;4386;51.236;6.742;2023-03-18T01:28:22;100436.91;;;13.47;74.55
8699;BME280;4386;51.236;6.742;2023-03-18T01:29:25;100441.09;;;13.50;74.44
8699;BME280;4386;51.236;6.742;2023-03-18T01:30:27;100452.44;;;13.52;74.53
8699;BME280;4386;51.236;6.742;2023-03-18T01:31:31;100446.13;;;13.53;74.64
8699;BME280;4386;51.236;6.742;2023-03-18T01:32:35;100446.13;;;13.53;74.45
8699;BME280;4386;51.236;6.742;2023-03-18T01:33:39;100445.16;;;13.54;74.26
8699;BME280;4386;51.236;6.742;2023-03-18T01:34:41;100444.16;;;13.55;74.43
8699;BME280;4386;51.236;6.742;2023-03-18T01:35:44;100445.84;;;13.56;74.51
8699;BME280;4386;51.236;6.742;2023-03-18T01:36:48;100446.69;;;13.56;74.41
8699;BME280;4386;51.236;6.742;2023-03-18T01:37:50;100452.84;;;13.57;74.50
8699;BME280;4386;51.236;6.742;2023-03-18T01:38:53;100447.53;;;13.57;74.53
8699;BME280;4386;51.236;6.742;2023-03-18T01:39:56;100437.72;;;13.57;74.49
8699;BME280;4386;51.236;6.742;2023-03-18T01:40:59;100444.69;;;13.58;74.54
8699;BME280;4386;51.236;6.742;2023-03-18T01:42:02;100442.03;;;13.58;74.68
8699;BME280;4386;51.236;6.742;2023-03-18T01:43:12;100434.88;;;13.59;74.41
8699;BME280;4386;51.236;6.742;2023-03-18T01:44:17;100439.38;;;13.58;74.27
8699;BME280;4386;51.236;6.742;2023-03-18T01:45:22;100433.19;;;13.58;74.47
8699;BME280;4386;51.236;6.742;2023-03-18T01:46:34;100435.88;;;13.58;74.29
8699;BME280;4386;51.236;6.742;2023-03-18T01:47:36;100435.06;;;13.57;74.58
8699;BME280;4386;51.236;6.742;2023-03-18T01:48:41;100438.53;;;13.58;74.58
8699;BME280;4386;51.236;6.742;2023-03-18T01:49:46;100436.88;;;13.57;74.69
8699;BME280;4386;51.236;6.742;2023-03-18T01:50:51;100438.53;;;13.58;74.35
8699;BME280;4386;51.236;6.742;2023-03-18T01:51:57;100438.53;;;13.58;74.86
8699;BME280;4386;51.236;6.742;2023-03-18T01:53:03;100449.19;;;13.58;74.83
8699;BME280;4386;51.236;6.742;2023-03-18T01:54:07;100447.53;;;13.57;74.83
8699;BME280;4386;51.236;6.742;2023-03-18T01:55:13;100433.19;;;13.58;74.60
8699;BME280;4386;51.236;6.742;2023-03-18T01:56:16;100435.88;;;13.58;74.78
8699;BME280;4386;51.236;6.742;2023-03-18T01:57:21;100437.72;;;13.57;74.83
8699;BME280;4386;51.236;6.742;2023-03-18T01:58:28;100442.19;;;13.57;74.98
8699;BME280;4386;51.236;6.742;2023-03-18T01:59:35;100435.19;;;13.56;74.94
8699;BME280;4386;51.236;6.742;2023-03-18T02:00:42;100431.69;;;13.55;74.88
8699;BME280;4386;51.236;6.742;2023-03-18T02:01:52;100438.00;;;13.54;74.90
8699;BME280;4386;51.236;6.742;2023-03-18T02:02:54;100430.16;;;13.53;74.80
8699;BME280;4386;51.236;6.742;2023-03-18T02:03:59;100425.97;;;13.50;75.04
8699;BME280;4386;51.236;6.742;2023-03-18T02:05:05;100425.25;;;13.48;74.98
8699;BME280;4386;51.236;6.742;2023-03-18T02:06:10;100423.72;;;13.46;75.12
8699;BME280;4386;51.236;6.742;2023-03-18T02:07:14;100419.38;;;13.45;75.17
8699;BME280;4386;51.236;6.742;2023-03-18T02:08:17;100422.34;;;13.42;75.44
8699;BME280;4386;51.236;6.742;2023-03-18T02:09:19;100419.00;;;13.40;75.11
8699;BME280;4386;51.236;6.742;2023-03-18T02:10:23;100411.28;;;13.37;75.55
8699;BME280;4386;51.236;6.742;2023-03-18T02:11:26;100412.28;;;13.36;75.56
8699;BME280;4386;51.236;6.742;2023-03-18T02:12:31;100413.41;;;13.33;75.52
8699;BME280;4386;51.236;6.742;2023-03-18T02:13:36;100410.06;;;13.31;75.65
8699;BME280;4386;51.236;6.742;2023-03-18T02:14:39;100419.03;;;13.30;75.65
8699;BME280;4386;51.236;6.742;2023-03-18T02:15:46;100422.81;;;13.28;75.75
8699;BME280;4386;51.236;6.742;2023-03-18T02:16:55;100420.44;;;13.25;75.87
8699;BME280;4386;51.236;6.742;2023-03-18T02:18:02;100417.06;;;13.23;75.84
8699;BME280;4386;51.236;6.742;2023-03-18T02:19:32;100421.84;;;13.19;75.88
8699;BME280;4386;51.236;6.742;2023-03-18T02:20:45;100420.47;;;13.15;76.02
8699;BME280;4386;51.236;6.742;2023-03-18T02:21:53;100426.91;;;13.13;75.97
8699;BME280;4386;51.236;6.742;2023-03-18T02:23:00;100424.53;;;13.10;75.88
8699;BME280;4386;51.236;6.742;2023-03-18T02:24:13;100430.09;;;13.06;75.99
8699;BME280;4386;51.236;6.742;2023-03-18T02:25:30;100433.03;;;13.03;76.21
8699;BME280;4386;51.236;6.742;2023-03-18T02:26:41;100434.19;;;13.01;76.16
8699;BME280;4386;51.236;6.742;2023-03-18T02:27:48;100430.97;;;12.97;76.17
8699;BME280;4386;51.236;6.742;2023-03-18T02:28:55;100424.97;;;12.95;76.26
8699;BME280;4386;51.236;6.742;2023-03-18T02:30:00;100427.75;;;12.94;76.54
8699;BME280;4386;51.236;6.742;2023-03-18T02:31:08;100424.53;;;12.90;76.33
8699;BME280;4386;51.236;6.742;2023-03-18T02:32:14;100430.81;;;12.89;76.65
8699;BME280;4386;51.236;6.742;2023-03-18T02:33:18;100427.47;;;12.87;76.71
8699;BME280;4386;51.236;6.742;2023-03-18T02:34:22;100420.47;;;12.86;76.87
8699;BME280;4386;51.236;6.742;2023-03-18T02:35:26;100418.94;;;12.84;76.77
8699;BME280;4386;51.236;6.742;2023-03-18T02:36:30;100420.75;;;12.83;77.09
8699;BME280;4386;51.236;6.742;2023-03-18T02:37:34;100425.38;;;12.81;76.92
8699;BME280;4386;51.236;6.742;2023-03-18T02:38:39;100421.03;;;12.80;76.89
8699;BME280;4386;51.236;6.742;2023-03-18T02:39:43;100418.66;;;12.77;77.26
8699;BME280;4386;51.236;6.742;2023-03-18T02:40:44;100421.47;;;12.76;77.18
8699;BME280;4386;51.236;6.742;2023-03-18T02:41:47;100421.59;;;12.74;77.56
8699;BME280;4386;51.236;6.742;2023-03-18T02:43:16;100419.09;;;12.73;77.45
8699;BME280;4386;51.236;6.742;2023-03-18T02:44:19;100421.03;;;12.71;77.45
8699;BME280;4386;51.236;6.742;2023-03-18T02:45:36;100421.31;;;12.68;77.65
8699;BME280;4386;51.236;6.742;2023-03-18T02:46:46;100424.94;;;12.67;77.78
8699;BME280;4386;51.236;6.742;2023-03-18T02:47:54;100438.41;;;12.65;77.67
8699;BME280;4386;51.236;6.742;2023-03-18T02:48:59;100434.06;;;12.64;77.68
8699;BME280;4386;51.236;6.742;2023-03-18T02:50:03;100431.69;;;12.61;78.06
8699;BME280;4386;51.236;6.742;2023-03-18T02:51:05;100432.53;;;12.62;77.95
8699;BME280;4386;51.236;6.742;2023-03-18T02:52:09;100434.50;;;12.60;77.96
8699;BME280;4386;51.236;6.742;2023-03-18T02:53:11;100436.31;;;12.59;78.29
8699;BME280;4386;51.236;6.742;2023-03-18T02:54:19;100439.94;;;12.58;78.30
8699;BME280;4386;51.236;6.742;2023-03-18T02:55:21;100439.09;;;12.58;78.27
8699;BME280;4386;51.236;6.742;2023-03-18T02:56:27;100443.72;;;12.56;78.53
8699;BME280;4386;51.236;6.742;2023-03-18T02:57:29;100442.88;;;12.55;78.78
8699;BME280;4386;51.236;6.742;2023-03-18T02:58:33;100451.81;;;12.54;78.62
8699;BME280;4386;51.236;6.742;2023-03-18T02:59:34;100445.66;;;12.53;78.36
8699;BME280;4386;51.236;6.742;2023-03-18T03:00:40;100444.00;;;12.52;78.72
8699;BME280;4386;51.236;6.742;2023-03-18T03:01:45;100449.44;;;12.51;78.95
8699;BME280;4386;51.236;6.742;2023-03-18T03:02:48;100441.63;;;12.49;79.08
8699;BME280;4386;51.236;6.742;2023-03-18T03:03:51;100443.44;;;12.49;79.17
8699;BME280;4386;51.236;6.742;2023-03-18T03:04:54;100449.72;;;12.48;79.12
8699;BME280;4386;51.236;6.742;2023-03-18T03:05:55;100442.03;;;12.45;79.08
8699;BME280;4386;51.236;6.742;2023-03-18T03:06:58;100445.66;;;12.44;79.39
8699;BME280;4386;51.236;6.742;2023-03-18T03:08:02;100446.66;;;12.43;79.53
8699;BME280;4386;51.236;6.742;2023-03-18T03:09:06;100447.63;;;12.42;79.62
8699;BME280;4386;51.236;6.742;2023-03-18T03:10:10;100446.78;;;12.41;79.78
8699;BME280;4386;51.236;6.742;2023-03-18T03:11:13;100446.78;;;12.41;79.65
8699;BME280;4386;51.236;6.742;2023-03-18T03:12:14;100447.75;;;12.40;79.60
8699;BME280;4386;51.236;6.742;2023-03-18T03:13:21;100447.91;;;12.39;79.82
8699;BME280;4386;51.236;6.742;2023-03-18T03:14:24;100445.38;;;12.37;79.81
8699;BME280;4386;51.236;6.742;2023-03-18T03:15:27;100448.88;;;12.38;79.69
8699;BME280;4386;51.236;6.742;2023-03-18T03:16:29;100442.72;;;12.37;79.83
8699;BME280;4386;51.236;6.742;2023-03-18T03:17:32;100442.88;;;12.36;79.89
8699;BME280;4386;51.236;6.742;2023-03-18T03:18:34;100442.03;;;12.35;80.03
8699;BME280;4386;51.236;6.742;2023-03-18T03:19:37;100451.81;;;12.35;80.06
8699;BME280;4386;51.236;6.742;2023-03-18T03:20:39;100450.97;;;12.34;80.01
8699;BME280;4386;51.236;6.742;2023-03-18T03:21:42;100451.13;;;12.33;80.41
8699;BME280;4386;51.236;6.742;2023-03-18T03:22:44;100456.44;;;12.33;80.28
8699;BME280;4386;51.236;6.742;2023-03-18T03:23:48;100447.59;;;12.32;80.26
8699;BME280;4386;51.236;6.742;2023-03-18T03:24:50;100452.09;;;12.32;80.36
8699;BME280;4386;51.236;6.742;2023-03-18T03:25:53;100455.72;;;12.31;80.45
8699;BME280;4386;51.236;6.742;2023-03-18T03:26:54;100455.72;;;12.31;80.52
8699;BME280;4386;51.236;6.742;2023-03-18T03:27:57;100452.19;;;12.30;80.55
8699;BME280;4386;51.236;6.742;2023-03-18T03:28:59;100455.84;;;12.29;80.38
8699;BME280;4386;51.236;6.742;2023-03-18T03:30:05;100456.81;;;12.28;80.67
8699;BME280;4386;51.236;6.742;2023-03-18T03:31:07;100458.63;;;12.28;80.86
8699;BME280;4386;51.236;6.742;2023-03-18T03:32:11;100454.31;;;12.27;80.61
8699;BME280;4386;51.236;6.742;2023-03-18T03:33:12;100450.94;;;12.25;80.91
8699;BME280;4386;51.236;6.742;2023-03-18T03:34:15;100455.41;;;12.24;80.78
8699;BME280;4386;51.236;6.742;2023-03-18T03:35:19;100450.94;;;12.25;80.87
8699;BME280;4386;51.236;6.742;2023-03-18T03:36:21;100450.09;;;12.24;80.89
8699;BME280;4386;51.236;6.742;2023-03-18T03:37:23;100454.56;;;12.24;80.82
8699;BME280;4386;51.236;6.742;2023-03-18T03:38:26;100454.56;;;12.24;80.90
8699;BME280;4386;51.236;6.742;2023-03-18T03:39:28;100448.56;;;12.22;81.00
8699;BME280;4386;51.236;6.742;2023-03-18T03:40:31;100459.34;;;12.20;81.09
8699;BME280;4386;51.236;6.742;2023-03-18T03:41:34;100455.84;;;12.20;81.07
8699;BME280;4386;51.236;6.742;2023-03-18T03:42:36;100454.16;;;12.19;81.23
8699;BME280;4386;51.236;6.742;2023-03-18T03:43:39;100461.28;;;12.18;81.11
8699;BME280;4386;51.236;6.742;2023-03-18T03:44:41;100455.13;;;12.18;81.19
8699;BME280;4386;51.236;6.742;2023-03-18T03:45:45;100472.06;;;12.17;81.55
8699;BME280;4386;51.236;6.742;2023-03-18T03:46:46;100466.03;;;12.15;81.66
8699;BME280;4386;51.236;6.742;2023-03-18T03:47:49;100466.03;;;12.15;81.62
8699;BME280;4386;51.236;6.742;2023-03-18T03:48:51;100464.34;;;12.14;81.58
8699;BME280;4386;51.236;6.742;2023-03-18T03:49:54;100469.69;;;12.14;81.58
8699;BME280;4386;51.236;6.742;2023-03-18T03:50:56;100474.13;;;12.13;81.62
8699;BME280;4386;51.236;6.742;2023-03-18T03:51:59;100469.91;;;12.11;81.66
8699;BME280;4386;51.236;6.742;2023-03-18T03:53:00;100476.06;;;12.11;81.58
8699;BME280;4386;51.236;6.742;2023-03-18T03:54:04;100475.22;;;12.11;81.54
8699;BME280;4386;51.236;6.742;2023-03-18T03:55:07;100474.41;;;12.10;81.79
8699;BME280;4386;51.236;6.742;2023-03-18T03:56:11;100482.38;;;12.10;81.74
8699;BME280;4386;51.236;6.742;2023-03-18T03:57:14;100484.19;;;12.10;81.72
8699;BME280;4386;51.236;6.742;2023-03-18T03:58:15;100482.50;;;12.09;81.76
8699;BME280;4386;51.236;6.742;2023-03-18T03:59:18;100479.00;;;12.08;81.93
8699;BME280;4386;51.236;6.742;2023-03-18T04:00:21;100477.34;;;12.07;81.89
8699;BME280;4386;51.236;6.742;2023-03-18T04:01:34;100476.50;;;12.07;82.03
8699;BME280;4386;51.236;6.742;2023-03-18T04:02:35;100482.78;;;12.06;82.24
8699;BME280;4386;51.236;6.742;2023-03-18T04:03:38;100486.41;;;12.05;81.72
8699;BME280;4386;51.236;6.742;2023-03-18T04:04:41;100488.09;;;12.06;81.73
8699;BME280;4386;51.236;6.742;2023-03-18T04:05:42;100486.41;;;12.05;81.97
8699;BME280;4386;51.236;6.742;2023-03-18T04:06:45;100490.06;;;12.04;82.11
8699;BME280;4386;51.236;6.742;2023-03-18T04:07:47;100486.41;;;12.05;82.03
8699;BME280;4386;51.236;6.742;2023-03-18T04:08:50;100486.56;;;12.03;81.87
8699;BME280;4386;51.236;6.742;2023-03-18T04:09:51;100490.06;;;12.04;82.17
8699;BME280;4386;51.236;6.742;2023-03-18T04:10:56;100489.06;;;12.05;82.39
8699;BME280;4386;51.236;6.742;2023-03-18T04:11:58;100493.41;;;12.06;82.26
8699;BME280;4386;51.236;6.742;2023-03-18T04:13:01;100498.59;;;12.07;82.28
8699;BME280;4386;51.236;6.742;2023-03-18T04:14:02;100491.44;;;12.08;82.59
8699;BME280;4386;51.236;6.742;2023-03-18T04:15:06;100493.81;;;12.11;82.52
8699;BME280;4386;51.236;6.742;2023-03-18T04:16:08;100491.88;;;12.13;82.62
8699;BME280;4386;51.236;6.742;2023-03-18T04:17:12;100490.66;;;12.17;82.54
8699;BME280;4386;51.236;6.742;2023-03-18T04:18:14;100502.66;;;12.21;82.79
8699;BME280;4386;51.236;6.742;2023-03-18T04:19:27;100491.63;;;12.25;82.59
8699;BME280;4386;51.236;6.742;2023-03-18T04:20:29;100505.50;;;12.29;82.95
8699;BME280;4386;51.236;6.742;2023-03-18T04:21:32;100499.06;;;12.31;82.50
8699;BME280;4386;51.236;6.742;2023-03-18T04:22:34;100495.28;;;12.34;82.53
8699;BME280;4386;51.236;6.742;2023-03-18T04:23:37;100503.00;;;12.37;82.76
8699;BME280;4386;51.236;6.742;2023-03-18T04:24:39;100505.53;;;12.38;82.82
8699;BME280;4386;51.236;6.742;2023-03-18T04:25:43;100502.75;;;12.40;82.97
8699;BME280;4386;51.236;6.742;2023-03-18T04:26:44;100507.78;;;12.43;82.84
8699;BME280;4386;51.236;6.742;2023-03-18T04:27:47;100500.63;;;12.43;82.79
8699;BME280;4386;51.236;6.742;2023-03-18T04:28:49;100504.84;;;12.46;82.97
8699;BME280;4386;51.236;6.742;2023-03-18T04:29:52;100505.53;;;12.48;82.77
8699;BME280;4386;51.236;6.742;2023-03-18T04:30:53;100517.88;;;12.49;82.67
8699;BME280;4386;51.236;6.742;2023-03-18T04:31:56;100504.41;;;12.50;82.67
8699;BME280;4386;51.236;6.742;2023-03-18T04:33:00;100513.13;;;12.52;82.82
8699;BME280;4386;51.236;6.742;2023-03-18T04:34:03;100508.66;;;12.53;82.89
8699;BME280;4386;51.236;6.742;2023-03-18T04:35:06;100506.69;;;12.55;82.79
8699;BME280;4386;51.236;6.742;2023-03-18T04:36:09;100509.19;;;12.57;82.63
8699;BME280;4386;51.236;6.742;2023-03-18T04:37:11;100512.69;;;12.57;82.38
8699;BME280;4386;51.236;6.742;2023-03-18T04:38:14;100511.72;;;12.58;82.50
8699;BME280;4386;51.236;6.742;2023-03-18T04:39:16;100514.50;;;12.57;82.29
8699;BME280;4386;51.236;6.742;2023-03-18T04:40:19;100506.69;;;12.55;82.16
8699;BME280;4386;51.236;6.742;2023-03-18T04:41:21;100510.31;;;12.54;82.25
8699;BME280;4386;51.236;6.742;2023-03-18T04:42:24;100508.88;;;12.50;82.10
8699;BME280;4386;51.236;6.742;2023-03-18T04:43:26;100516.16;;;12.48;82.17
8699;BME280;4386;51.236;6.742;2023-03-18T04:44:28;100517.28;;;12.45;82.26
8699;BME280;4386;51.236;6.742;2023-03-18T04:45:30;100518.41;;;12.43;82.14
8699;BME280;4386;51.236;6.742;2023-03-18T04:46:32;100518.41;;;12.43;82.37
8699;BME280;4386;51.236;6.742;2023-03-18T04:47:34;100513.09;;;12.43;82.31
8699;BME280;4386;51.236;6.742;2023-03-18T04:48:39;100522.59;;;12.45;82.00
8699;BME280;4386;51.236;6.742;2023-03-18T04:49:42;100519.09;;;12.45;82.16
8699;BME280;4386;51.236;6.742;2023-03-18T04:50:44;100517.56;;;12.42;82.18
8699;BME280;4386;51.236;6.742;2023-03-18T04:51:47;100520.78;;;12.46;82.20
8699;BME280;4386;51.236;6.742;2023-03-18T04:52:48;100518.81;;;12.48;82.34
8699;BME280;4386;51.236;6.742;2023-03-18T04:53:52;100524.84;;;12.50;82.28
8699;BME280;4386;51.236;6.742;2023-03-18T04:54:54;100520.25;;;12.52;82.20
8699;BME280;4386;51.236;6.742;2023-03-18T04:55:56;100529.91;;;12.53;82.28
8699;BME280;4386;51.236;6.742;2023-03-18T04:56:58;100526.25;;;12.54;82.19
8699;BME280;4386;51.236;6.742;2023-03-18T04:58:01;100522.63;;;12.55;82.31
8699;BME280;4386;51.236;6.742;2023-03-18T04:59:03;100525.28;;;12.55;82.28
8699;BME280;4386;51.236;6.742;2023-03-18T05:00:11;100520.66;;;12.57;82.16
8699;BME280;4386;51.236;6.742;2023-03-18T05:01:19;100531.28;;;12.57;82.28
8699;BME280;4386;51.236;6.742;2023-03-18T05:02:21;100523.19;;;12.59;82.23
8699;BME280;4386;51.236;6.742;2023-03-18T05:03:24;100532.00;;;12.59;81.71
8699;BME280;4386;51.236;6.742;2023-03-18T05:04:27;100529.19;;;12.61;81.99
8699;BME280;4386;51.236;6.742;2023-03-18T05:05:30;100528.34;;;12.60;81.92
8699;BME280;4386;51.236;6.742;2023-03-18T05:06:32;100535.38;;;12.61;82.28
8699;BME280;4386;51.236;6.742;2023-03-18T05:07:35;100536.34;;;12.60;82.05
8699;BME280;4386;51.236;6.742;2023-03-18T05:08:37;100538.03;;;12.61;82.10
8699;BME280;4386;51.236;6.742;2023-03-18T05:09:40;100535.38;;;12.61;82.03
8699;BME280;4386;51.236;6.742;2023-03-18T05:10:41;100536.34;;;12.60;81.96
8699;BME280;4386;51.236;6.742;2023-03-18T05:11:45;100536.34;;;12.60;81.92
8699;BME280;4386;51.236;6.742;2023-03-18T05:12:49;100537.19;;;12.61;81.82
8699;BME280;4386;51.236;6.742;2023-03-18T05:13:51;100535.38;;;12.61;81.72
8699;BME280;4386;51.236;6.742;2023-03-18T05:14:53;100527.38;;;12.61;81.83
8699;BME280;4386;51.236;6.742;2023-03-18T05:15:56;100538.03;;;12.61;81.78
8699;BME280;4386;51.236;6.742;2023-03-18T05:16:57;100535.53;;;12.60;81.64
8699;BME280;4386;51.236;6.742;2023-03-18T05:18:00;100540.84;;;12.60;81.79
8699;BME280;4386;51.236;6.742;2023-03-18T05:19:02;100540.00;;;12.59;81.39
8699;BME280;4386;51.236;6.742;2023-03-18T05:20:07;100538.31;;;12.58;81.72
8699;BME280;4386;51.236;6.742;2023-03-18T05:21:10;100540.13;;;12.58;81.73
8699;BME280;4386;51.236;6.742;2023-03-18T05:22:14;100540.00;;;12.59;81.55
8699;BME280;4386;51.236;6.742;2023-03-18T05:23:16;100541.66;;;12.60;81.54
8699;BME280;4386;51.236;6.742;2023-03-18T05:24:19;100546.16;;;12.60;81.55
8699;BME280;4386;51.236;6.742;2023-03-18T05:25:20;100548.66;;;12.61;81.45
8699;BME280;4386;51.236;6.742;2023-03-18T05:26:23;100548.66;;;12.61;81.73
8699;BME280;4386;51.236;6.742;2023-03-18T05:27:27;100556.50;;;12.63;81.43
8699;BME280;4386;51.236;6.742;2023-03-18T05:28:30;100551.19;;;12.63;81.58
8699;BME280;4386;51.236;6.742;2023-03-18T05:29:31;100549.34;;;12.63;81.45
8699;BME280;4386;51.236;6.742;2023-03-18T05:30:40;100548.38;;;12.64;81.42
8699;BME280;4386;51.236;6.742;2023-03-18T05:31:43;100552.00;;;12.63;81.48
8699;BME280;4386;51.236;6.742;2023-03-18T05:32:45;100549.22;;;12.65;81.55
8699;BME280;4386;51.236;6.742;2023-03-18T05:33:47;100544.75;;;12.65;81.51
8699;BME280;4386;51.236;6.742;2023-03-18T05:34:50;100544.75;;;12.65;81.25
8699;BME280;4386;51.236;6.742;2023-03-18T05:35:53;100536.78;;;12.65;81.17
8699;BME280;4386;51.236;6.742;2023-03-18T05:36:55;100545.59;;;12.66;80.96
8699;BME280;4386;51.236;6.742;2023-03-18T05:37:58;100546.44;;;12.66;81.25
8699;BME280;4386;51.236;6.742;2023-03-18T05:39:01;100551.75;;;12.66;81.17
8699;BME280;4386;51.236;6.742;2023-03-18T05:40:04;100546.44;;;12.66;81.19
8699;BME280;4386;51.236;6.742;2023-03-18T05:41:11;100551.75;;;12.66;81.17
8699;BME280;4386;51.236;6.742;2023-03-18T05:42:13;100550.19;;;12.64;81.26